createdAt,value
2018-03-01T00:01:35.030Z,60.80
2018-03-01T00:04:01.211Z,61.20
2018-03-01T00:06:28.179Z,61.50
2018-03-01T00:08:54.370Z,61.50
2018-03-01T00:11:21.330Z,62.10
2018-03-01T00:13:48.287Z,61.10
2018-03-01T00:16:14.510Z,61.10
2018-03-01T00:18:41.497Z,61.40
2018-03-01T00:21:08.460Z,62.20
2018-03-01T00:23:34.778Z,61.30
2018-03-01T00:26:01.003Z,61.20
2018-03-01T00:28:27.263Z,61.50
2018-03-01T00:30:53.482Z,60.60
2018-03-01T00:33:19.681Z,61.10
2018-03-01T00:35:45.944Z,61.40
2018-03-01T00:38:12.137Z,60.90
2018-03-01T00:40:38.387Z,61.40
2018-03-01T00:43:04.594Z,61.40
2018-03-01T00:45:30.808Z,61.50
2018-03-01T00:47:57.038Z,60.60
2018-03-01T00:50:23.235Z,61.40
2018-03-01T00:52:50.173Z,61.40
2018-03-01T00:55:16.353Z,61.40
2018-03-01T00:57:43.094Z,61.40
2018-03-01T01:00:09.307Z,61.50
2018-03-01T01:02:35.551Z,61.50
2018-03-01T01:05:01.797Z,61.50
2018-03-01T01:07:28.011Z,61.50
2018-03-01T01:09:54.332Z,61.00
2018-03-01T01:12:20.575Z,61.50
2018-03-01T01:14:46.838Z,61.40
2018-03-01T01:17:13.057Z,60.30
2018-03-01T01:19:39.221Z,61.00
2018-03-01T01:22:06.163Z,61.40
2018-03-01T01:24:33.084Z,61.10
2018-03-01T01:26:59.278Z,61.00
2018-03-01T01:29:25.496Z,61.80
2018-03-01T01:31:51.695Z,61.60
2018-03-01T01:34:18.644Z,61.70
2018-03-01T01:36:45.581Z,61.40
2018-03-01T01:39:12.524Z,61.30
2018-03-01T01:41:39.474Z,62.00
2018-03-01T01:44:05.663Z,61.90
2018-03-01T01:46:31.878Z,61.40
2018-03-01T01:48:58.065Z,61.40
2018-03-01T01:51:25.006Z,62.20
2018-03-01T01:53:51.926Z,61.40
2018-03-01T01:56:18.149Z,61.40
2018-03-01T01:58:44.378Z,61.40
2018-03-01T02:01:10.595Z,61.40
2018-03-01T02:03:36.786Z,61.30
2018-03-01T02:06:03.062Z,61.40
2018-03-01T02:08:29.267Z,61.70
2018-03-01T02:10:55.459Z,61.40
2018-03-01T02:13:22.444Z,61.50
2018-03-01T02:15:48.653Z,61.50
2018-03-01T02:18:14.920Z,62.20
2018-03-01T02:20:41.132Z,61.80
2018-03-01T02:23:07.309Z,62.30
2018-03-01T02:25:34.264Z,62.00
2018-03-01T02:28:01.187Z,61.70
2018-03-01T02:30:27.390Z,61.70
2018-03-01T02:32:53.679Z,61.70
2018-03-01T02:35:19.928Z,62.40
2018-03-01T02:37:46.172Z,62.10
2018-03-01T02:40:12.429Z,62.00
2018-03-01T02:42:38.660Z,62.10
2018-03-01T02:45:04.872Z,62.30
2018-03-01T02:47:31.073Z,61.90
2018-03-01T02:49:57.304Z,61.60
2018-03-01T02:52:23.525Z,62.10
2018-03-01T02:54:49.698Z,62.20
2018-03-01T02:57:16.010Z,62.30
2018-03-01T02:59:42.368Z,62.50
2018-03-01T03:02:08.578Z,62.10
2018-03-01T03:04:34.764Z,62.00
2018-03-01T03:07:00.965Z,61.90
2018-03-01T03:09:27.948Z,62.70
2018-03-01T03:11:54.151Z,62.40
2018-03-01T03:14:21.147Z,62.50
2018-03-01T03:16:47.388Z,62.40
2018-03-01T03:19:13.615Z,62.20
2018-03-01T03:21:39.832Z,62.20
2018-03-01T03:24:06.083Z,62.40
2018-03-01T03:26:32.321Z,62.10
2018-03-01T03:28:58.600Z,62.10
2018-03-01T03:31:24.839Z,62.30
2018-03-01T03:33:51.014Z,62.40
2018-03-01T03:36:17.223Z,62.00
2018-03-01T03:38:44.178Z,62.80
2018-03-01T03:41:10.401Z,62.00
2018-03-01T03:43:36.797Z,62.50
2018-03-01T03:46:02.993Z,62.40
2018-03-01T03:48:29.956Z,62.00
2018-03-01T03:50:56.192Z,62.00
2018-03-01T03:53:22.435Z,62.50
2018-03-01T03:55:48.733Z,62.20
2018-03-01T03:58:15.676Z,62.70
2018-03-01T04:00:42.874Z,62.00
2018-03-01T04:03:09.113Z,62.00
2018-03-01T04:05:35.483Z,62.70
2018-03-01T04:08:01.667Z,62.30
2018-03-01T04:10:27.922Z,62.80
2018-03-01T04:12:54.184Z,63.20
2018-03-01T04:15:21.121Z,62.10
2018-03-01T04:17:48.047Z,62.30
2018-03-01T04:20:14.284Z,62.30
2018-03-01T04:22:40.482Z,61.90
2018-03-01T04:25:06.723Z,62.10
2018-03-01T04:27:32.922Z,62.40
2018-03-01T04:29:59.116Z,62.20
2018-03-01T04:32:26.062Z,62.40
2018-03-01T04:34:53.083Z,62.30
2018-03-01T04:37:19.304Z,62.30
2018-03-01T04:39:45.498Z,62.30
2018-03-01T04:42:11.737Z,62.40
2018-03-01T04:44:37.969Z,62.30
2018-03-01T04:47:04.191Z,62.40
2018-03-01T04:49:30.434Z,62.20
2018-03-01T04:51:56.669Z,62.20
2018-03-01T04:54:22.890Z,62.20
2018-03-01T04:56:49.173Z,62.10
2018-03-01T04:59:16.238Z,62.70
2018-03-01T05:01:42.668Z,62.70
2018-03-01T05:04:08.893Z,62.00
2018-03-01T05:06:35.099Z,62.10
2018-03-01T05:09:01.274Z,62.40
2018-03-01T05:11:27.528Z,63.40
2018-03-01T05:13:53.746Z,62.50
2018-03-01T05:16:20.036Z,62.50
2018-03-01T05:18:46.359Z,62.90
2018-03-01T05:21:13.310Z,62.80
2018-03-01T05:23:39.588Z,62.80
2018-03-01T05:26:05.777Z,62.30
2018-03-01T05:28:32.009Z,63.00
2018-03-01T05:34:01.286Z,62.30
2018-03-01T05:36:27.490Z,62.70
2018-03-01T05:38:53.715Z,62.40
2018-03-01T05:41:19.951Z,62.70
2018-03-01T05:43:46.265Z,63.00
2018-03-01T05:46:12.553Z,62.80
2018-03-01T05:48:38.787Z,62.50
2018-03-01T05:51:05.001Z,62.70
2018-03-01T05:53:32.011Z,62.60
2018-03-01T05:55:58.197Z,62.50
2018-03-01T05:58:24.468Z,63.30
2018-03-01T06:00:50.737Z,63.10
2018-03-01T06:03:16.950Z,63.10
2018-03-01T06:05:43.141Z,63.10
2018-03-01T06:08:09.407Z,62.80
2018-03-01T06:10:35.591Z,62.60
2018-03-01T06:13:02.519Z,62.80
2018-03-01T06:15:29.601Z,63.10
2018-03-01T06:17:56.557Z,63.60
2018-03-01T06:20:22.762Z,62.90
2018-03-01T06:22:50.344Z,63.00
2018-03-01T06:25:16.548Z,63.00
2018-03-01T06:27:51.898Z,62.90
2018-03-01T06:30:27.569Z,62.90
2018-03-01T06:32:53.896Z,62.30
2018-03-01T06:35:20.096Z,62.80
2018-03-01T06:37:47.054Z,62.50
2018-03-01T06:40:13.251Z,62.50
2018-03-01T06:42:39.538Z,62.50
2018-03-01T06:45:05.797Z,62.00
2018-03-01T06:47:32.065Z,62.30
2018-03-01T06:49:59.177Z,62.40
2018-03-01T06:52:25.381Z,62.50
2018-03-01T06:54:51.596Z,62.40
2018-03-01T06:57:17.821Z,63.20
2018-03-01T06:59:44.057Z,62.50
2018-03-01T07:02:10.298Z,62.10
2018-03-01T07:04:37.344Z,61.80
2018-03-01T07:07:03.860Z,62.10
2018-03-01T07:09:30.066Z,62.40
2018-03-01T07:11:57.036Z,62.40
2018-03-01T07:14:23.237Z,62.30
2018-03-01T07:16:50.193Z,62.40
2018-03-01T07:19:17.186Z,61.90
2018-03-01T07:21:43.383Z,61.70
2018-03-01T07:24:09.605Z,61.80
2018-03-01T07:26:36.596Z,61.50
2018-03-01T07:29:02.860Z,61.50
2018-03-01T07:31:29.118Z,62.10
2018-03-01T07:33:55.315Z,62.30
2018-03-01T07:36:22.276Z,61.60
2018-03-01T07:38:49.245Z,61.60
2018-03-01T07:41:15.456Z,61.50
2018-03-01T07:43:41.641Z,61.40
2018-03-01T07:46:07.922Z,61.40
2018-03-01T07:48:34.147Z,61.10
2018-03-01T07:51:00.324Z,61.50
2018-03-01T07:53:26.676Z,61.60
2018-03-01T07:55:52.944Z,62.40
2018-03-01T07:58:20.779Z,60.80
2018-03-01T08:00:47.799Z,60.50
2018-03-01T08:03:14.087Z,60.50
2018-03-01T08:05:40.300Z,60.50
2018-03-01T08:08:07.265Z,60.60
2018-03-01T08:10:33.503Z,60.60
2018-03-01T08:12:59.690Z,59.90
2018-03-01T08:15:26.644Z,60.50
2018-03-01T08:17:53.554Z,60.20
2018-03-01T08:20:19.807Z,60.20
2018-03-01T08:22:46.746Z,59.20
2018-03-01T08:25:12.999Z,59.30
2018-03-01T08:27:39.959Z,59.80
2018-03-01T08:30:06.202Z,59.80
2018-03-01T08:32:32.415Z,59.20
2018-03-01T08:34:58.630Z,59.50
2018-03-01T08:37:25.639Z,58.60
2018-03-01T08:39:51.800Z,58.60
2018-03-01T08:42:18.729Z,59.00
2018-03-01T08:44:44.976Z,58.80
2018-03-01T08:47:11.941Z,57.30
2018-03-01T08:49:38.147Z,57.30
2018-03-01T08:52:16.011Z,55.90
2018-03-01T08:54:42.397Z,56.00
2018-03-01T08:57:08.632Z,57.00
2018-03-01T08:59:34.857Z,57.60
2018-03-01T09:02:01.062Z,56.30
2018-03-01T09:04:28.005Z,57.20
2018-03-01T09:06:54.946Z,57.10
2018-03-01T09:09:21.235Z,57.10
2018-03-01T09:11:47.436Z,56.90
2018-03-01T09:14:13.776Z,56.80
2018-03-01T09:16:40.017Z,56.60
2018-03-01T09:19:06.409Z,55.00
2018-03-01T09:21:32.747Z,55.80
2018-03-01T09:23:59.677Z,56.00
2018-03-01T09:26:26.774Z,56.00
2018-03-01T09:28:52.997Z,55.40
2018-03-01T09:31:19.259Z,55.00
2018-03-01T09:33:45.438Z,55.90
2018-03-01T09:36:11.669Z,56.10
2018-03-01T09:38:37.948Z,54.40
2018-03-01T09:41:04.178Z,55.00
2018-03-01T09:43:30.611Z,55.00
2018-03-01T09:45:56.834Z,55.80
2018-03-01T09:48:23.051Z,56.20
2018-03-01T09:50:49.230Z,57.00
2018-03-01T09:53:16.175Z,56.10
2018-03-01T09:55:43.250Z,55.80
2018-03-01T09:58:09.475Z,55.70
2018-03-01T10:00:35.726Z,55.20
2018-03-01T10:03:01.971Z,54.00
2018-03-01T10:05:28.196Z,55.20
2018-03-01T10:07:54.386Z,54.80
2018-03-01T10:10:20.562Z,54.70
2018-03-01T10:12:46.819Z,54.60
2018-03-01T10:15:13.836Z,54.90
2018-03-01T10:17:40.129Z,54.80
2018-03-01T10:20:06.377Z,54.10
2018-03-01T10:22:32.629Z,55.20
2018-03-01T10:24:58.848Z,54.80
2018-03-01T10:27:25.849Z,54.30
2018-03-01T10:29:52.051Z,53.80
2018-03-01T10:32:18.284Z,54.50
2018-03-01T10:34:45.230Z,54.60
2018-03-01T10:37:12.237Z,53.10
2018-03-01T10:39:38.418Z,53.10
2018-03-01T10:42:05.365Z,52.60
2018-03-01T10:44:31.580Z,52.50
2018-03-01T10:46:58.524Z,53.40
2018-03-01T10:49:25.451Z,53.40
2018-03-01T10:51:51.666Z,53.30
2018-03-01T10:54:17.917Z,53.70
2018-03-01T10:56:44.153Z,52.90
2018-03-01T10:59:11.219Z,53.70
2018-03-01T11:01:38.253Z,53.40
2018-03-01T11:04:05.280Z,51.70
2018-03-01T11:06:31.471Z,51.70
2018-03-01T11:08:57.701Z,51.70
2018-03-01T11:11:23.995Z,51.40
2018-03-01T11:13:50.267Z,51.80
2018-03-01T11:16:16.521Z,51.80
2018-03-01T11:18:43.074Z,51.70
2018-03-01T11:21:09.349Z,51.80
2018-03-01T11:23:35.608Z,51.90
2018-03-01T11:26:01.893Z,51.90
2018-03-01T11:28:28.194Z,52.20
2018-03-01T11:30:54.460Z,52.00
2018-03-01T11:33:20.707Z,51.70
2018-03-01T11:35:46.935Z,51.50
2018-03-01T11:38:13.172Z,51.90
2018-03-01T11:40:39.440Z,50.80
2018-03-01T11:43:06.407Z,51.60
2018-03-01T11:45:33.447Z,50.80
2018-03-01T11:48:00.419Z,52.10
2018-03-01T11:50:26.672Z,52.10
2018-03-01T11:52:52.952Z,52.20
2018-03-01T11:55:19.204Z,52.00
2018-03-01T11:57:45.449Z,52.30
2018-03-01T12:00:11.693Z,50.50
2018-03-01T12:02:38.011Z,50.60
2018-03-01T12:05:04.251Z,51.10
2018-03-01T12:07:30.483Z,51.50
2018-03-01T12:09:56.758Z,51.50
2018-03-01T12:12:23.702Z,51.40
2018-03-01T12:14:50.671Z,52.40
2018-03-01T12:17:16.921Z,52.40
2018-03-01T12:19:43.315Z,51.60
2018-03-01T12:22:10.290Z,51.60
2018-03-01T12:24:36.667Z,51.60
2018-03-01T12:27:02.953Z,51.40
2018-03-01T12:29:29.195Z,49.90
2018-03-01T12:31:55.538Z,50.00
2018-03-01T12:34:21.792Z,50.10
2018-03-01T12:36:48.005Z,52.00
2018-03-01T12:39:14.318Z,53.10
2018-03-01T12:41:40.549Z,51.50
2018-03-01T12:44:06.781Z,51.40
2018-03-01T12:46:32.998Z,52.30
2018-03-01T12:48:59.225Z,51.60
2018-03-01T12:51:25.478Z,50.80
2018-03-01T12:53:51.718Z,50.20
2018-03-01T12:56:17.986Z,51.60
2018-03-01T12:58:44.253Z,50.50
2018-03-01T13:01:10.535Z,50.60
2018-03-01T13:03:37.628Z,52.10
2018-03-01T13:06:03.915Z,52.00
2018-03-01T13:08:30.930Z,50.90
2018-03-01T13:10:57.199Z,50.80
2018-03-01T13:13:24.219Z,51.50
2018-03-01T13:15:50.442Z,51.50
2018-03-01T13:18:16.677Z,52.80
2018-03-01T13:20:43.190Z,52.80
2018-03-01T13:23:09.470Z,52.40
2018-03-01T13:25:36.455Z,51.50
2018-03-01T13:28:02.762Z,51.50
2018-03-01T13:30:31.034Z,52.10
2018-03-01T13:32:57.296Z,52.30
2018-03-01T13:35:23.605Z,51.30
2018-03-01T13:37:49.856Z,52.70
2018-03-01T13:40:16.093Z,52.30
2018-03-01T13:45:42.079Z,52.50
2018-03-01T13:48:09.136Z,51.80
2018-03-01T13:50:36.200Z,52.70
2018-03-01T13:53:02.466Z,52.60
2018-03-01T13:55:28.734Z,52.80
2018-03-01T13:57:55.886Z,51.50
2018-03-01T14:00:22.932Z,52.30
2018-03-01T14:02:49.973Z,52.70
2018-03-01T14:05:16.219Z,52.00
2018-03-01T14:10:36.220Z,52.00
2018-03-01T14:13:14.089Z,51.60
2018-03-01T14:15:41.242Z,51.60
2018-03-01T14:18:10.327Z,52.10
2018-03-01T14:20:43.176Z,52.20
2018-03-01T14:23:24.334Z,52.40
2018-03-01T14:25:57.404Z,51.90
2018-03-01T14:28:23.636Z,51.80
2018-03-01T14:30:49.915Z,51.90
2018-03-01T14:33:16.890Z,51.20
2018-03-01T14:35:43.291Z,51.30
2018-03-01T14:38:09.571Z,51.90
2018-03-01T14:40:35.806Z,52.10
2018-03-01T14:43:02.097Z,52.30
2018-03-01T14:45:28.393Z,53.00
2018-03-01T14:47:54.650Z,53.30
2018-03-01T14:50:20.859Z,52.90
2018-03-01T14:52:47.088Z,52.40
2018-03-01T14:55:13.356Z,52.70
2018-03-01T14:57:40.407Z,52.10
2018-03-01T15:00:06.696Z,51.90
2018-03-01T15:02:32.917Z,52.70
2018-03-01T15:04:59.908Z,53.40
2018-03-01T15:07:26.106Z,53.30
2018-03-01T15:09:52.382Z,52.10
2018-03-01T15:12:18.585Z,51.70
2018-03-01T15:14:44.826Z,52.90
2018-03-01T15:17:11.065Z,52.30
2018-03-01T15:19:37.401Z,51.10
2018-03-01T15:22:03.623Z,50.00
2018-03-01T15:24:29.828Z,48.60
2018-03-01T15:26:56.136Z,49.20
2018-03-01T15:29:22.353Z,49.60
2018-03-01T15:31:48.578Z,49.40
2018-03-01T15:34:15.620Z,50.60
2018-03-01T15:36:42.790Z,51.50
2018-03-01T15:39:09.021Z,51.50
2018-03-01T15:41:35.231Z,52.90
2018-03-01T15:44:02.212Z,52.40
2018-03-01T15:46:28.452Z,52.40
2018-03-01T15:48:54.704Z,52.30
2018-03-01T15:51:20.943Z,52.60
2018-03-01T15:53:47.141Z,53.00
2018-03-01T15:56:13.326Z,53.20
2018-03-01T15:58:40.281Z,53.10
2018-03-01T16:01:07.233Z,52.60
2018-03-01T16:03:34.264Z,53.00
2018-03-01T16:06:01.227Z,53.00
2018-03-01T16:08:28.203Z,53.00
2018-03-01T16:10:54.412Z,53.00
2018-03-01T16:13:20.632Z,53.00
2018-03-01T16:15:47.593Z,52.90
2018-03-01T16:18:14.024Z,52.90
2018-03-01T16:20:40.775Z,52.90
2018-03-01T16:23:06.970Z,53.60
2018-03-01T16:25:33.913Z,54.00
2018-03-01T16:28:01.138Z,55.00
2018-03-01T16:30:27.318Z,54.40
2018-03-01T16:32:53.579Z,54.40
2018-03-01T16:35:19.774Z,54.20
2018-03-01T16:37:46.166Z,55.00
2018-03-01T16:40:12.403Z,54.20
2018-03-01T16:42:38.731Z,54.80
2018-03-01T16:45:04.993Z,54.50
2018-03-01T16:47:31.942Z,55.00
2018-03-01T16:49:58.164Z,54.90
2018-03-01T16:52:25.153Z,55.00
2018-03-01T16:54:51.346Z,55.00
2018-03-01T16:57:32.512Z,55.30
2018-03-01T16:59:59.494Z,55.70
2018-03-01T17:02:25.722Z,55.70
2018-03-01T17:04:51.964Z,54.70
2018-03-01T17:07:18.129Z,54.80
2018-03-01T17:09:44.365Z,54.30
2018-03-01T17:12:11.342Z,55.60
2018-03-01T17:14:37.541Z,55.60
2018-03-01T17:17:04.522Z,54.80
2018-03-01T17:19:30.724Z,54.80
2018-03-01T17:21:57.668Z,55.80
2018-03-01T17:24:24.617Z,55.80
2018-03-01T17:26:51.947Z,55.80
2018-03-01T17:29:18.153Z,55.40
2018-03-01T17:31:44.338Z,55.10
2018-03-01T17:34:10.630Z,55.60
2018-03-01T17:36:36.820Z,55.60
2018-03-01T17:39:03.496Z,55.90
2018-03-01T17:41:29.705Z,55.70
2018-03-01T17:43:55.893Z,55.90
2018-03-01T17:46:23.108Z,56.30
2018-03-01T17:48:49.327Z,56.30
2018-03-01T17:51:15.542Z,56.20
2018-03-01T17:53:41.785Z,56.30
2018-03-01T17:56:08.837Z,56.50
2018-03-01T17:58:35.078Z,56.30
2018-03-01T18:01:01.312Z,56.10
2018-03-01T18:03:27.549Z,56.70
2018-03-01T18:05:54.547Z,57.20
2018-03-01T18:08:20.929Z,56.70
2018-03-01T18:10:47.851Z,56.30
2018-03-01T18:13:14.062Z,56.30
2018-03-01T18:15:40.307Z,56.10
2018-03-01T18:18:07.290Z,56.70
2018-03-01T18:20:34.257Z,56.00
2018-03-01T18:23:00.511Z,56.00
2018-03-01T18:25:26.745Z,56.40
2018-03-01T18:27:53.086Z,56.90
2018-03-01T18:30:19.311Z,56.10
2018-03-01T18:35:48.894Z,55.80
2018-03-01T18:38:15.118Z,56.10
2018-03-01T18:40:41.371Z,56.60
2018-03-01T18:43:08.587Z,56.40
2018-03-01T18:45:35.521Z,56.60
2018-03-01T18:48:01.757Z,56.20
2018-03-01T18:50:27.991Z,56.90
2018-03-01T18:52:54.335Z,56.20
2018-03-01T18:55:20.575Z,56.10
2018-03-01T18:57:46.777Z,56.50
2018-03-01T19:00:12.990Z,56.60
2018-03-01T19:02:39.230Z,56.80
2018-03-01T19:05:05.539Z,56.90
2018-03-01T19:07:31.854Z,57.10
2018-03-01T19:09:58.134Z,57.10
2018-03-01T19:12:24.438Z,57.10
2018-03-01T19:14:50.699Z,57.10
2018-03-01T19:17:17.029Z,56.70
2018-03-01T19:19:43.597Z,57.70
2018-03-01T19:22:10.553Z,57.10
2018-03-01T19:24:36.988Z,57.00
2018-03-01T19:27:03.250Z,57.50
2018-03-01T19:29:29.538Z,56.70
2018-03-01T19:31:56.670Z,57.30
2018-03-01T19:34:23.021Z,57.20
2018-03-01T19:36:50.037Z,57.60
2018-03-01T19:39:16.256Z,57.50
2018-03-01T19:41:42.487Z,57.60
2018-03-01T19:44:08.694Z,57.30
2018-03-01T19:46:34.889Z,57.90
2018-03-01T19:49:01.168Z,57.10
2018-03-01T19:51:27.404Z,57.60
2018-03-01T19:53:53.628Z,57.30
2018-03-01T19:56:19.849Z,57.20
2018-03-01T19:58:46.055Z,57.40
2018-03-01T20:01:12.510Z,57.80
2018-03-01T20:03:38.733Z,57.30
2018-03-01T20:06:05.116Z,58.00
2018-03-01T20:08:32.088Z,57.60
2018-03-01T20:10:58.360Z,57.60
2018-03-01T20:13:24.588Z,57.50
2018-03-01T20:15:50.853Z,57.70
2018-03-01T20:18:19.313Z,58.20
2018-03-01T20:20:45.509Z,58.20
2018-03-01T20:23:11.690Z,57.70
2018-03-01T20:25:38.696Z,58.00
2018-03-01T20:28:04.913Z,57.90
2018-03-01T20:30:31.152Z,58.10
2018-03-01T20:32:57.378Z,57.90
2018-03-01T20:35:24.452Z,57.90
2018-03-01T20:37:50.652Z,57.90
2018-03-01T20:40:16.892Z,58.20
2018-03-01T20:42:43.248Z,57.80
2018-03-01T20:45:09.555Z,58.40
2018-03-01T20:47:35.763Z,58.40
2018-03-01T20:50:02.094Z,58.30
2018-03-01T20:52:28.294Z,57.70
2018-03-01T20:54:55.417Z,58.10
2018-03-01T20:57:21.668Z,58.10
2018-03-01T20:59:48.683Z,57.90
2018-03-01T21:02:14.898Z,57.90
2018-03-01T21:04:41.107Z,58.20
2018-03-01T21:07:07.593Z,57.90
2018-03-01T21:09:34.672Z,58.40
2018-03-01T21:12:01.088Z,58.40
2018-03-01T21:14:27.394Z,58.80
2018-03-01T21:16:53.656Z,58.50
2018-03-01T21:19:19.928Z,58.10
2018-03-01T21:21:46.162Z,58.90
2018-03-01T21:24:12.431Z,58.50
2018-03-01T21:26:39.399Z,58.80
2018-03-01T21:29:05.636Z,58.80
2018-03-01T21:31:31.892Z,58.50
2018-03-01T21:33:58.112Z,58.50
2018-03-01T21:36:24.329Z,58.00
2018-03-01T21:38:50.574Z,59.00
2018-03-01T21:41:16.780Z,59.00
2018-03-01T21:43:43.180Z,58.90
2018-03-01T21:46:14.094Z,59.30
2018-03-01T21:48:40.341Z,59.40
2018-03-01T21:51:07.314Z,58.70
2018-03-01T21:53:33.558Z,58.70
2018-03-01T21:55:59.821Z,58.60
2018-03-01T21:58:26.057Z,58.90
2018-03-01T22:00:52.366Z,58.90
2018-03-01T22:03:18.611Z,59.00
2018-03-01T22:05:44.864Z,58.90
2018-03-01T22:08:11.799Z,59.10
2018-03-01T22:10:37.997Z,59.10
2018-03-01T22:13:04.316Z,58.80
2018-03-01T22:15:30.551Z,58.90
2018-03-01T22:17:56.785Z,59.00
2018-03-01T22:20:23.009Z,58.80
2018-03-01T22:22:49.429Z,59.50
2018-03-01T22:25:15.688Z,58.90
2018-03-01T22:27:41.912Z,59.00
2018-03-01T22:30:08.220Z,58.90
2018-03-01T22:32:34.464Z,59.00
2018-03-01T22:35:00.712Z,59.40
2018-03-01T22:37:26.954Z,59.60
2018-03-01T22:39:53.239Z,58.90
2018-03-01T22:42:19.492Z,59.20
2018-03-01T22:44:45.758Z,59.40
2018-03-01T22:47:13.766Z,58.80
2018-03-01T22:49:40.037Z,58.80
2018-03-01T22:52:06.312Z,58.70
2018-03-01T22:54:32.554Z,59.00
2018-03-01T22:56:58.817Z,58.60
2018-03-01T22:59:25.085Z,59.20
2018-03-01T23:01:52.049Z,59.10
2018-03-01T23:04:18.270Z,59.00
2018-03-01T23:06:45.225Z,59.20
2018-03-01T23:09:11.443Z,59.10
2018-03-01T23:11:38.445Z,58.60
2018-03-01T23:14:04.761Z,58.60
2018-03-01T23:16:30.937Z,59.10
2018-03-01T23:18:57.892Z,59.20
2018-03-01T23:21:24.929Z,58.60
2018-03-01T23:23:51.911Z,58.70
2018-03-01T23:26:18.120Z,58.70
2018-03-01T23:28:44.368Z,58.60
2018-03-01T23:31:10.782Z,58.60
2018-03-01T23:33:37.710Z,58.60
2018-03-01T23:36:04.682Z,58.50
2018-03-01T23:38:30.874Z,58.50
2018-03-01T23:40:57.110Z,58.50
2018-03-01T23:43:24.141Z,58.50
2018-03-01T23:45:50.538Z,58.50
2018-03-01T23:48:16.727Z,58.40
2018-03-01T23:50:44.071Z,59.00
2018-03-01T23:53:10.364Z,58.90
2018-03-01T23:55:36.594Z,59.20
2018-03-01T23:58:02.823Z,58.60
